DMO weather

Sedalia Memorial Airport
Sedalia, Missouri, United States

Public forecast

Using degrees Fahrenheit for public forecast. Weather courtesy of forecast.io.

METAR (pilot weather report)

Retrieved 2019/09/23 08:44 UTC (0 seconds ago):

KDMO 230844Z AUTO 35005KT 2SM HZ OVC002 16/06 A3007 RMK AO2 T01560061 $

TAF (pilot weather forecast)

Closest forecast is Whiteman Air Force Base, 17.5 nm (32.4 km) W. Retrieved 2019/09/23 03:36 UTC (5 hours ago):

TAF KSZL 230300Z 2303/2409 32009KT 9999 BKN012 BKN065 QNH2996INS BECMG 2304/2305 33006KT 9999 SCT065 SCT150 QNH2998INS BECMG 2305/2306 VRB06KT 0800 FG SCT150 QNH3000INS BECMG 2313/2314 15006KT 9999 NSW SKC QNH2998INS TX25/2321Z TN15/2310Z